createdAt,value
2023-03-20T00:02:24.820Z,3.67
2023-03-20T00:04:53.157Z,3.71
2023-03-20T00:07:21.869Z,3.65
2023-03-20T00:09:49.905Z,3.70
2023-03-20T00:12:26.608Z,3.46
2023-03-20T00:14:54.993Z,3.61
2023-03-20T00:17:23.425Z,3.66
2023-03-20T00:19:51.483Z,3.60
2023-03-20T00:22:19.704Z,3.58
2023-03-20T00:24:47.711Z,3.31
2023-03-20T00:27:17.853Z,3.59
2023-03-20T00:29:46.414Z,3.22
2023-03-20T00:32:15.548Z,3.43
2023-03-20T00:34:43.645Z,3.45
2023-03-20T00:37:14.336Z,3.46
2023-03-20T00:39:42.376Z,3.51
2023-03-20T00:42:22.997Z,3.52
2023-03-20T00:44:55.873Z,3.12
2023-03-20T00:47:29.030Z,3.42
2023-03-20T00:49:58.122Z,3.43
2023-03-20T00:52:26.811Z,3.24
2023-03-20T00:54:54.959Z,3.34
2023-03-20T00:57:33.711Z,3.51
2023-03-20T01:00:13.063Z,3.46
2023-03-20T01:02:41.356Z,3.39
2023-03-20T01:05:10.190Z,3.31
2023-03-20T01:07:38.388Z,3.03
2023-03-20T01:10:07.566Z,3.24
2023-03-20T01:12:35.906Z,3.19
2023-03-20T01:15:04.709Z,3.11
2023-03-20T01:17:33.992Z,2.83
2023-03-20T01:20:02.252Z,3.13
2023-03-20T01:22:30.729Z,3.09
2023-03-20T01:24:58.804Z,3.09
2023-03-20T01:27:26.837Z,2.90
2023-03-20T01:29:54.780Z,3.03
2023-03-20T01:32:23.658Z,3.06
2023-03-20T01:34:53.392Z,2.74
2023-03-20T01:37:30.770Z,2.95
2023-03-20T01:40:03.155Z,2.85
2023-03-20T01:42:34.716Z,2.54
2023-03-20T01:45:15.946Z,3.12
2023-03-20T01:47:44.983Z,3.11
2023-03-20T01:50:42.784Z,3.13
2023-03-20T01:53:27.709Z,3.04
2023-03-20T01:56:01.839Z,3.00
2023-03-20T01:58:49.704Z,3.03
2023-03-20T02:01:19.254Z,2.90
2023-03-20T02:03:52.047Z,3.01
2023-03-20T02:06:36.175Z,2.96
2023-03-20T02:09:12.949Z,2.84
2023-03-20T02:11:45.296Z,2.46
2023-03-20T02:14:15.296Z,2.70
2023-03-20T02:16:53.496Z,2.61
2023-03-20T02:19:50.136Z,2.71
2023-03-20T02:22:55.489Z,2.71
2023-03-20T02:25:49.180Z,2.70
2023-03-20T02:29:01.164Z,2.71
2023-03-20T02:32:10.019Z,2.50
2023-03-20T02:35:16.263Z,2.86
2023-03-20T02:37:55.446Z,2.83
2023-03-20T02:40:31.983Z,2.88
2023-03-20T02:43:21.369Z,2.56
2023-03-20T02:46:10.487Z,2.83
2023-03-20T02:49:00.788Z,2.78
2023-03-20T02:51:45.373Z,2.72
2023-03-20T02:54:51.637Z,2.70
2023-03-20T02:57:28.166Z,2.45
2023-03-20T03:00:03.199Z,2.67
2023-03-20T03:02:52.054Z,2.05
2023-03-20T03:05:28.310Z,2.55
2023-03-20T03:08:01.090Z,2.51
2023-03-20T03:10:38.407Z,1.81
2023-03-20T03:13:15.651Z,2.52
2023-03-20T03:15:49.609Z,2.53
2023-03-20T03:18:25.979Z,2.66
2023-03-20T03:21:00.408Z,2.60
2023-03-20T03:23:47.147Z,2.67
2023-03-20T03:26:39.630Z,2.31
2023-03-20T03:29:17.250Z,2.51
2023-03-20T03:31:46.204Z,2.65
2023-03-20T03:34:18.626Z,2.68
2023-03-20T03:37:19.890Z,2.73
2023-03-20T03:39:56.079Z,2.39
2023-03-20T03:42:33.855Z,2.70
2023-03-20T03:45:17.518Z,2.72
2023-03-20T03:47:53.712Z,2.72
2023-03-20T03:50:36.054Z,2.70
2023-03-20T03:53:11.996Z,2.67
2023-03-20T03:55:46.410Z,2.67
2023-03-20T03:58:40.549Z,2.59
2023-03-20T04:01:12.118Z,2.49
2023-03-20T04:03:49.643Z,2.35
2023-03-20T04:06:18.494Z,1.99
2023-03-20T04:08:46.539Z,2.35
2023-03-20T04:11:21.831Z,2.27
2023-03-20T04:13:57.672Z,2.22
2023-03-20T04:19:38.611Z,1.83
2023-03-20T04:22:06.790Z,2.10
2023-03-20T04:24:34.728Z,1.89
2023-03-20T04:27:02.821Z,2.17
2023-03-20T04:29:30.888Z,2.18
2023-03-20T04:32:27.922Z,1.95
2023-03-20T04:35:10.201Z,2.17
2023-03-20T04:37:50.575Z,1.92
2023-03-20T04:40:20.168Z,2.09
2023-03-20T04:42:48.991Z,2.09
2023-03-20T04:45:20.261Z,2.09
2023-03-20T04:47:48.301Z,1.97
2023-03-20T04:50:17.646Z,2.19
2023-03-20T04:52:46.007Z,2.22
2023-03-20T04:55:16.213Z,1.54
2023-03-20T04:57:44.246Z,2.11
2023-03-20T05:00:14.226Z,2.27
2023-03-20T05:02:43.474Z,2.26
2023-03-20T05:05:11.658Z,2.22
2023-03-20T05:07:40.269Z,2.22
2023-03-20T05:10:11.793Z,2.18
2023-03-20T05:12:49.864Z,2.09
2023-03-20T05:15:29.685Z,2.16
2023-03-20T05:18:16.820Z,2.12
2023-03-20T05:21:04.393Z,2.03
2023-03-20T05:23:50.645Z,2.04
2023-03-20T05:26:49.442Z,2.00
2023-03-20T05:29:20.335Z,2.10
2023-03-20T05:32:03.904Z,2.22
2023-03-20T05:34:38.923Z,1.92
2023-03-20T05:37:13.444Z,2.23
2023-03-20T05:40:16.903Z,2.35
2023-03-20T05:42:58.106Z,2.49
2023-03-20T05:45:28.897Z,2.63
2023-03-20T05:48:15.699Z,2.53
2023-03-20T05:50:43.742Z,2.95
2023-03-20T05:53:40.766Z,3.01
2023-03-20T05:56:32.171Z,3.13
2023-03-20T05:59:13.094Z,3.33
2023-03-20T06:02:10.767Z,3.35
2023-03-20T06:04:43.122Z,3.29
2023-03-20T06:07:14.349Z,3.61
2023-03-20T06:09:46.023Z,3.82
2023-03-20T06:12:16.356Z,3.54
2023-03-20T06:14:44.709Z,3.92
2023-03-20T06:17:14.293Z,3.92
2023-03-20T06:19:43.972Z,4.04
2023-03-20T06:22:12.246Z,4.22
2023-03-20T06:24:41.352Z,3.85
2023-03-20T06:27:10.340Z,4.39
2023-03-20T06:29:39.340Z,4.46
2023-03-20T06:32:17.572Z,4.62
2023-03-20T06:34:48.517Z,4.89
2023-03-20T06:37:16.799Z,5.23
2023-03-20T06:39:45.147Z,5.50
2023-03-20T06:42:16.227Z,5.90
2023-03-20T06:44:46.486Z,6.03
2023-03-20T06:47:35.790Z,6.41
2023-03-20T06:50:04.854Z,6.50
2023-03-20T06:52:33.984Z,6.83
2023-03-20T06:55:41.032Z,7.04
2023-03-20T06:58:09.321Z,7.43
2023-03-20T07:00:38.558Z,7.85
2023-03-20T07:03:09.192Z,8.14
2023-03-20T07:05:40.550Z,7.99
2023-03-20T07:08:11.221Z,8.07
2023-03-20T07:10:39.426Z,8.40
2023-03-20T07:13:07.666Z,8.12
2023-03-20T07:15:38.491Z,8.14
2023-03-20T07:18:08.671Z,8.29
2023-03-20T07:20:36.940Z,8.61
2023-03-20T07:23:05.288Z,8.53
2023-03-20T07:25:42.222Z,9.05
2023-03-20T07:28:14.308Z,9.23
2023-03-20T07:30:46.193Z,9.33
2023-03-20T07:33:17.875Z,9.50
2023-03-20T07:35:47.052Z,9.66
2023-03-20T07:38:15.495Z,10.09
2023-03-20T07:40:55.641Z,10.32
2023-03-20T07:43:23.824Z,10.12
2023-03-20T07:46:21.088Z,10.84
2023-03-20T07:48:49.676Z,11.23
2023-03-20T07:51:18.333Z,11.12
2023-03-20T07:53:46.685Z,11.00
2023-03-20T07:56:14.760Z,11.65
2023-03-20T07:58:42.720Z,11.74
2023-03-20T08:01:11.167Z,12.32
2023-03-20T08:03:39.780Z,12.43
2023-03-20T08:06:09.776Z,12.81
2023-03-20T08:08:40.011Z,12.77
2023-03-20T08:11:08.125Z,13.13
2023-03-20T08:13:36.348Z,13.41
2023-03-20T08:16:05.384Z,13.24
2023-03-20T08:18:33.517Z,13.60
2023-03-20T08:21:01.824Z,13.54
2023-03-20T08:23:30.063Z,13.45
2023-03-20T08:25:58.393Z,13.38
2023-03-20T08:28:44.276Z,13.17
2023-03-20T08:31:16.978Z,13.26
2023-03-20T08:33:47.098Z,13.03
2023-03-20T08:36:17.382Z,13.14
2023-03-20T08:38:46.001Z,12.83
2023-03-20T08:41:14.061Z,12.93
2023-03-20T08:43:42.916Z,13.03
2023-03-20T08:46:11.179Z,13.35
2023-03-20T08:48:39.673Z,13.53
2023-03-20T08:51:08.455Z,13.49
2023-03-20T08:53:37.054Z,13.49
2023-03-20T08:56:05.981Z,13.68
2023-03-20T08:58:33.973Z,13.52
2023-03-20T09:01:08.150Z,13.59
2023-03-20T09:03:37.034Z,13.79
2023-03-20T09:06:10.059Z,13.13
2023-03-20T09:08:38.896Z,13.53
2023-03-20T09:11:08.312Z,13.71
2023-03-20T09:13:37.176Z,13.93
2023-03-20T09:16:06.829Z,13.57
2023-03-20T09:18:36.167Z,13.93
2023-03-20T09:21:05.009Z,14.12
2023-03-20T09:23:33.522Z,14.46
2023-03-20T09:26:01.593Z,14.62
2023-03-20T09:28:30.011Z,14.85
2023-03-20T09:30:59.755Z,15.09
2023-03-20T09:33:28.748Z,15.16
2023-03-20T09:35:57.168Z,15.15
2023-03-20T09:38:25.557Z,15.29
2023-03-20T09:41:00.898Z,15.15
2023-03-20T09:44:08.885Z,15.38
2023-03-20T09:47:19.779Z,15.37
2023-03-20T09:50:22.840Z,15.82
2023-03-20T09:53:07.482Z,15.69
2023-03-20T09:55:40.019Z,15.59
2023-03-20T09:58:49.001Z,16.07
2023-03-20T10:01:19.110Z,16.30
2023-03-20T10:04:13.473Z,15.64
2023-03-20T10:06:42.925Z,16.15
2023-03-20T10:09:35.021Z,15.99
2023-03-20T10:12:17.081Z,16.58
2023-03-20T10:15:16.937Z,16.48
2023-03-20T10:18:26.738Z,16.38
2023-03-20T10:20:56.582Z,16.31
2023-03-20T10:24:01.480Z,16.32
2023-03-20T10:26:32.278Z,16.05
2023-03-20T10:29:30.820Z,16.53
2023-03-20T10:32:08.104Z,16.01
2023-03-20T10:35:13.571Z,16.24
2023-03-20T10:38:25.097Z,16.44
2023-03-20T10:40:58.128Z,16.50
2023-03-20T10:43:33.225Z,16.44
2023-03-20T10:46:20.117Z,16.72
2023-03-20T10:49:01.864Z,17.00
2023-03-20T10:51:53.327Z,16.69
2023-03-20T10:54:27.360Z,16.85
2023-03-20T10:57:00.457Z,17.12
2023-03-20T10:59:41.085Z,17.13
2023-03-20T11:02:14.590Z,17.25
2023-03-20T11:04:43.473Z,17.19
2023-03-20T11:07:28.917Z,17.18
2023-03-20T11:10:06.242Z,17.24
2023-03-20T11:12:42.925Z,16.75
2023-03-20T11:15:27.386Z,16.79
2023-03-20T11:18:05.051Z,17.12
2023-03-20T11:20:55.009Z,17.06
2023-03-20T11:23:37.831Z,17.26
2023-03-20T11:26:12.236Z,17.22
2023-03-20T11:28:46.510Z,17.38
2023-03-20T11:31:14.529Z,17.31
2023-03-20T11:34:09.421Z,17.34
2023-03-20T11:36:40.311Z,16.86
2023-03-20T11:39:16.299Z,17.16
2023-03-20T11:41:58.762Z,17.26
2023-03-20T11:44:37.162Z,16.77
2023-03-20T11:47:17.718Z,17.11
2023-03-20T11:49:52.972Z,17.08
2023-03-20T11:52:32.944Z,17.29
2023-03-20T11:55:08.202Z,17.37
2023-03-20T11:57:44.124Z,17.80
2023-03-20T12:00:27.269Z,17.68
2023-03-20T12:02:55.879Z,17.81
2023-03-20T12:05:42.442Z,17.88
2023-03-20T12:08:20.253Z,17.93
2023-03-20T12:11:01.043Z,17.87
2023-03-20T12:13:43.774Z,17.99
2023-03-20T12:16:24.040Z,18.36
2023-03-20T12:19:05.439Z,17.69
2023-03-20T12:21:46.668Z,17.37
2023-03-20T12:24:42.379Z,16.79
2023-03-20T12:27:38.377Z,17.28
2023-03-20T12:30:10.170Z,17.18
2023-03-20T12:32:56.678Z,17.33
2023-03-20T12:35:37.209Z,16.99
2023-03-20T12:38:31.755Z,16.79
2023-03-20T12:41:41.772Z,16.40
2023-03-20T12:44:36.042Z,15.76
2023-03-20T12:47:09.865Z,15.71
2023-03-20T12:50:14.855Z,15.06
2023-03-20T12:53:01.591Z,15.14
2023-03-20T12:56:09.863Z,14.89
2023-03-20T12:58:51.708Z,14.53
2023-03-20T13:01:29.794Z,14.47
2023-03-20T13:04:35.077Z,14.69
2023-03-20T13:07:54.608Z,14.65
2023-03-20T13:10:34.186Z,14.69
2023-03-20T13:13:33.689Z,14.83
2023-03-20T13:16:13.518Z,14.68
2023-03-20T13:18:59.387Z,14.85
2023-03-20T13:21:38.156Z,14.91
2023-03-20T13:24:23.305Z,14.83
2023-03-20T13:27:00.253Z,14.43
2023-03-20T13:29:59.558Z,14.35
2023-03-20T13:32:43.018Z,13.97
2023-03-20T13:35:24.771Z,13.84
2023-03-20T13:37:57.456Z,13.42
2023-03-20T13:40:40.471Z,13.45
2023-03-20T13:43:42.724Z,13.36
2023-03-20T13:46:24.165Z,13.27
2023-03-20T13:48:54.849Z,12.96
2023-03-20T13:51:34.802Z,12.83
2023-03-20T13:54:49.254Z,13.10
2023-03-20T13:58:07.275Z,13.07
2023-03-20T14:01:34.168Z,13.04
2023-03-20T14:04:04.008Z,12.95
2023-03-20T14:06:31.953Z,12.98
2023-03-20T14:09:01.323Z,12.93
2023-03-20T14:11:35.737Z,12.85
2023-03-20T14:14:15.120Z,12.81
2023-03-20T14:16:44.887Z,12.69
2023-03-20T14:19:24.817Z,12.54
2023-03-20T14:21:57.287Z,12.43
2023-03-20T14:24:28.025Z,12.68
2023-03-20T14:27:01.043Z,12.73
2023-03-20T14:29:37.505Z,12.76
2023-03-20T14:32:14.547Z,12.71
2023-03-20T14:34:51.248Z,12.60
2023-03-20T14:38:16.374Z,12.43
2023-03-20T14:41:12.474Z,12.21
2023-03-20T14:44:22.982Z,12.14
2023-03-20T14:47:37.645Z,12.04
2023-03-20T14:50:31.804Z,11.86
2023-03-20T14:53:26.082Z,11.84
2023-03-20T14:55:57.197Z,11.80
2023-03-20T14:59:11.209Z,11.60
2023-03-20T15:01:39.327Z,11.53
2023-03-20T15:04:17.221Z,10.97
2023-03-20T15:07:03.803Z,10.94
2023-03-20T15:09:36.988Z,10.86
2023-03-20T15:12:05.579Z,11.00
2023-03-20T15:15:06.158Z,10.90
2023-03-20T15:17:44.411Z,10.77
2023-03-20T15:20:36.352Z,10.61
2023-03-20T15:23:06.220Z,10.27
2023-03-20T15:25:44.326Z,10.45
2023-03-20T15:28:19.617Z,10.13
2023-03-20T15:30:51.341Z,10.28
2023-03-20T15:33:34.446Z,10.09
2023-03-20T15:36:21.874Z,10.25
2023-03-20T15:38:50.179Z,10.21
2023-03-20T15:41:34.396Z,10.12
2023-03-20T15:44:16.580Z,10.19
2023-03-20T15:47:14.025Z,10.16
2023-03-20T15:49:42.716Z,10.03
2023-03-20T15:52:18.923Z,10.06
2023-03-20T15:54:48.871Z,9.25
2023-03-20T15:57:35.690Z,9.91
2023-03-20T16:00:15.561Z,9.88
2023-03-20T16:02:48.488Z,9.91
2023-03-20T16:05:18.946Z,9.71
2023-03-20T16:07:47.562Z,9.62
2023-03-20T16:10:36.673Z,9.65
2023-03-20T16:13:07.080Z,9.89
2023-03-20T16:15:35.441Z,9.87
2023-03-20T16:18:06.998Z,9.52
2023-03-20T16:20:43.472Z,9.79
2023-03-20T16:23:20.587Z,9.82
2023-03-20T16:25:48.972Z,9.82
2023-03-20T16:28:17.490Z,9.81
2023-03-20T16:30:45.695Z,9.78
2023-03-20T16:33:17.476Z,9.82
2023-03-20T16:35:50.424Z,9.80
2023-03-20T16:38:34.615Z,9.76
2023-03-20T16:41:40.114Z,9.70
2023-03-20T16:44:23.362Z,9.66
2023-03-20T16:47:01.368Z,9.58
2023-03-20T16:49:30.023Z,9.60
2023-03-20T16:52:01.725Z,9.62
2023-03-20T16:54:32.132Z,9.59
2023-03-20T16:57:04.344Z,9.49
2023-03-20T16:59:33.307Z,9.39
2023-03-20T17:02:01.772Z,9.22
2023-03-20T17:04:40.697Z,9.39
2023-03-20T17:07:18.629Z,9.39
2023-03-20T17:10:18.636Z,9.42
2023-03-20T17:12:49.674Z,9.38
2023-03-20T17:15:26.180Z,9.39
2023-03-20T17:17:55.287Z,9.36
2023-03-20T17:20:31.416Z,9.10
2023-03-20T17:22:59.943Z,9.32
2023-03-20T17:25:28.328Z,9.00
2023-03-20T17:27:56.678Z,9.33
2023-03-20T17:30:25.596Z,9.04
2023-03-20T17:32:54.440Z,9.29
2023-03-20T17:35:23.288Z,9.00
2023-03-20T17:37:51.668Z,9.28
2023-03-20T17:40:25.724Z,8.96
2023-03-20T17:42:54.402Z,9.05
2023-03-20T17:45:24.183Z,9.24
2023-03-20T17:47:52.977Z,9.26
2023-03-20T17:50:25.672Z,9.00
2023-03-20T17:52:55.803Z,9.28
2023-03-20T17:55:24.031Z,9.23
2023-03-20T17:57:52.253Z,9.30
2023-03-20T18:00:24.830Z,9.29
2023-03-20T18:02:53.634Z,9.28
2023-03-20T18:05:22.278Z,9.03
2023-03-20T18:07:50.758Z,9.21
2023-03-20T18:10:32.266Z,9.24
2023-03-20T18:13:01.307Z,9.24
2023-03-20T18:15:30.135Z,9.10
2023-03-20T18:17:58.391Z,9.20
2023-03-20T18:20:33.481Z,8.98
2023-03-20T18:23:02.362Z,9.11
2023-03-20T18:25:31.107Z,9.09
2023-03-20T18:31:15.231Z,8.96
2023-03-20T18:33:43.641Z,8.87
2023-03-20T18:36:20.577Z,8.80
2023-03-20T18:38:51.246Z,8.83
2023-03-20T18:41:21.126Z,8.76
2023-03-20T18:43:50.964Z,8.59
2023-03-20T18:46:24.265Z,8.67
2023-03-20T18:48:54.013Z,8.61
2023-03-20T18:51:44.335Z,8.18
2023-03-20T18:54:18.681Z,8.39
2023-03-20T18:57:01.858Z,8.49
2023-03-20T18:59:30.141Z,8.39
2023-03-20T19:01:58.457Z,8.34
2023-03-20T19:04:27.169Z,8.23
2023-03-20T19:06:55.860Z,8.15
2023-03-20T19:09:24.026Z,7.88
2023-03-20T19:11:52.114Z,8.03
2023-03-20T19:14:20.281Z,7.77
2023-03-20T19:16:48.686Z,7.98
2023-03-20T19:19:16.744Z,7.93
2023-03-20T19:21:45.180Z,7.99
2023-03-20T19:24:13.537Z,8.00
2023-03-20T19:26:42.226Z,7.98
2023-03-20T19:29:14.144Z,7.81
2023-03-20T19:31:42.741Z,8.02
2023-03-20T19:34:29.506Z,8.05
2023-03-20T19:36:59.190Z,7.99
2023-03-20T19:39:27.489Z,7.86
2023-03-20T19:41:56.200Z,8.04
2023-03-20T19:44:24.583Z,7.82
2023-03-20T19:46:53.106Z,8.00
2023-03-20T19:49:30.213Z,8.04
2023-03-20T19:51:59.433Z,8.03
2023-03-20T19:54:28.671Z,7.92
2023-03-20T19:56:56.812Z,7.98
2023-03-20T19:59:25.977Z,7.95
2023-03-20T20:01:54.954Z,7.97
2023-03-20T20:04:23.461Z,7.85
2023-03-20T20:06:55.440Z,7.95
2023-03-20T20:09:26.834Z,8.05
2023-03-20T20:11:55.308Z,8.06
2023-03-20T20:14:24.167Z,8.08
2023-03-20T20:16:55.614Z,8.11
2023-03-20T20:19:24.915Z,8.13
2023-03-20T20:24:41.575Z,7.87
2023-03-20T20:27:18.812Z,8.18
2023-03-20T20:29:52.669Z,8.11
2023-03-20T20:32:24.770Z,8.16
2023-03-20T20:38:27.095Z,8.00
2023-03-20T20:40:31.850Z,8.12
2023-03-20T20:43:02.579Z,8.09
2023-03-20T20:45:32.220Z,7.98
2023-03-20T20:48:02.796Z,7.78
2023-03-20T20:50:36.065Z,7.79
2023-03-20T20:53:05.252Z,7.65
2023-03-20T20:55:33.283Z,7.70
2023-03-20T20:58:03.901Z,7.65
2023-03-20T21:00:48.368Z,7.61
2023-03-20T21:03:17.233Z,7.52
2023-03-20T21:05:45.646Z,6.86
2023-03-20T21:08:14.729Z,7.45
2023-03-20T21:10:46.337Z,7.21
2023-03-20T21:13:15.694Z,7.20
2023-03-20T21:15:45.672Z,7.33
2023-03-20T21:18:14.870Z,7.31
2023-03-20T21:20:43.476Z,7.30
2023-03-20T21:23:11.818Z,7.30
2023-03-20T21:25:42.582Z,7.31
2023-03-20T21:28:11.906Z,7.11
2023-03-20T21:31:09.167Z,7.30
2023-03-20T21:33:35.907Z,7.33
2023-03-20T21:36:05.089Z,7.26
2023-03-20T21:41:24.859Z,7.36
2023-03-20T21:43:54.082Z,7.40
2023-03-20T21:55:30.930Z,7.41
2023-03-20T21:58:21.236Z,7.43
2023-03-20T22:03:28.838Z,7.15
2023-03-20T22:06:59.038Z,7.37
2023-03-20T22:09:52.294Z,7.36
2023-03-20T22:12:35.686Z,7.29
2023-03-20T22:18:05.723Z,7.35
2023-03-20T22:32:18.645Z,7.50
2023-03-20T22:35:05.042Z,7.55
2023-03-20T22:37:57.140Z,7.56
2023-03-20T22:46:45.218Z,7.63
2023-03-20T22:49:45.677Z,7.46
2023-03-20T22:52:29.247Z,7.68
2023-03-20T22:55:02.116Z,7.71
2023-03-20T22:57:41.206Z,7.76
2023-03-20T23:00:15.404Z,7.80
2023-03-20T23:02:43.697Z,7.87
2023-03-20T23:05:12.122Z,7.88
2023-03-20T23:07:40.907Z,7.90
2023-03-20T23:10:10.006Z,7.51
2023-03-20T23:12:38.866Z,7.94
2023-03-20T23:15:08.178Z,7.92
2023-03-20T23:17:36.453Z,8.03
2023-03-20T23:20:12.136Z,7.54
2023-03-20T23:22:41.645Z,8.06
2023-03-20T23:25:21.073Z,7.81
2023-03-20T23:27:58.174Z,8.05
2023-03-20T23:30:33.975Z,7.88
2023-03-20T23:33:06.569Z,8.06
2023-03-20T23:35:34.759Z,7.81
2023-03-20T23:38:02.821Z,8.05
2023-03-20T23:40:31.323Z,8.11
2023-03-20T23:42:59.523Z,8.09
2023-03-20T23:45:27.556Z,8.21
2023-03-20T23:47:55.892Z,7.92
2023-03-20T23:50:31.830Z,8.00
2023-03-20T23:53:19.444Z,8.27
2023-03-20T23:55:52.080Z,8.28
2023-03-20T23:58:24.347Z,8.21
